Time,TemperatureF,DewpointF,PressureIn,WindDirection,WindDirectionDegrees,WindSpeedMPH,WindSpeedGustMPH,Humidity,HourlyPrecipIn,Conditions,Clouds,dailyrainin,SoftwareType,DateUTC
2013-02-14 00:00:00,19.0,-99.9,-100.00,WNW,296,8.0,25.0,-999,-99.99,,,-99.99,,2013-02-14 07:00:00,
2013-02-14 00:32:00,19.0,-99.9,-100.00,WNW,296,8.0,25.0,-999,-99.99,,,-99.99,,2013-02-14 07:32:00,
2013-02-14 00:42:00,19.0,-99.9,-100.00,WNW,296,8.0,25.0,-999,-99.99,,,-99.99,,2013-02-14 07:42:00,
2013-02-14 00:52:00,19.0,-99.9,-100.00,WNW,296,8.0,25.0,-999,-99.99,,,-99.99,,2013-02-14 07:52:00,
2013-02-14 01:00:00,19.0,-99.9,-100.00,NW,307,7.0,31.0,-999,-99.99,,,-99.99,,2013-02-14 08:00:00,
2013-02-14 01:32:00,19.0,-99.9,-100.00,NW,307,7.0,31.0,-999,-99.99,,,-99.99,,2013-02-14 08:32:00,
2013-02-14 01:43:00,19.0,-99.9,-100.00,NW,307,7.0,31.0,-999,-99.99,,,-99.99,,2013-02-14 08:43:00,
2013-02-14 01:52:00,19.0,-99.9,-100.00,NW,307,7.0,31.0,-999,-99.99,,,-99.99,,2013-02-14 08:52:00,
2013-02-14 03:00:00,19.0,-99.9,-100.00,NW,324,6.0,19.0,-999,-99.99,,,-99.99,,2013-02-14 10:00:00,
2013-02-14 03:32:00,19.0,-99.9,-100.00,NW,324,6.0,19.0,-999,-99.99,,,-99.99,,2013-02-14 10:32:00,
2013-02-14 03:42:00,19.0,-99.9,-100.00,NW,324,6.0,19.0,-999,-99.99,,,-99.99,,2013-02-14 10:42:00,
2013-02-14 03:52:00,19.0,-99.9,-100.00,NW,324,6.0,19.0,-999,-99.99,,,-99.99,,2013-02-14 10:52:00,
2013-02-14 04:00:00,18.0,-99.9,-100.00,NW,324,7.0,23.0,-999,-99.99,,,-99.99,,2013-02-14 11:00:00,
2013-02-14 04:32:00,18.0,-99.9,-100.00,NW,324,7.0,23.0,-999,-99.99,,,-99.99,,2013-02-14 11:32:00,
2013-02-14 04:42:00,18.0,-99.9,-100.00,NW,324,7.0,23.0,-999,-99.99,,,-99.99,,2013-02-14 11:42:00,
2013-02-14 04:52:00,18.0,-99.9,-100.00,NW,324,7.0,23.0,-999,-99.99,,,-99.99,,2013-02-14 11:52:00,
2013-02-14 05:00:00,18.0,-99.9,-100.00,NNW,329,8.0,22.0,-999,-99.99,,,-99.99,,2013-02-14 12:00:00,
2013-02-14 05:32:00,18.0,-99.9,-100.00,NNW,329,8.0,22.0,-999,-99.99,,,-99.99,,2013-02-14 12:32:00,
2013-02-14 05:42:00,18.0,-99.9,-100.00,NNW,329,8.0,22.0,-999,-99.99,,,-99.99,,2013-02-14 12:42:00,
2013-02-14 05:53:00,18.0,-99.9,-100.00,NNW,329,8.0,22.0,-999,-99.99,,,-99.99,,2013-02-14 12:53:00,
2013-02-14 07:00:00,17.0,-99.9,-100.00,NNW,335,7.0,20.0,-999,-99.99,,,-99.99,,2013-02-14 14:00:00,
2013-02-14 07:32:00,17.0,-99.9,-100.00,NNW,335,7.0,20.0,-999,-99.99,,,-99.99,,2013-02-14 14:32:00,
2013-02-14 07:42:00,17.0,-99.9,-100.00,NNW,335,7.0,20.0,-999,-99.99,,,-99.99,,2013-02-14 14:42:00,
2013-02-14 07:53:00,17.0,-99.9,-100.00,NNW,335,7.0,20.0,-999,-99.99,,,-99.99,,2013-02-14 14:53:00,
2013-02-14 08:00:00,16.0,-99.9,-100.00,NW,325,7.0,17.0,-999,-99.99,,,-99.99,,2013-02-14 15:00:00,
2013-02-14 08:32:00,16.0,-99.9,-100.00,NW,325,7.0,17.0,-999,-99.99,,,-99.99,,2013-02-14 15:32:00,
2013-02-14 08:42:00,16.0,-99.9,-100.00,NW,325,7.0,17.0,-999,-99.99,,,-99.99,,2013-02-14 15:42:00,
2013-02-14 08:52:00,16.0,-99.9,-100.00,NW,325,7.0,17.0,-999,-99.99,,,-99.99,,2013-02-14 15:52:00,
2013-02-14 09:00:00,16.0,-99.9,-100.00,NNW,333,5.0,14.0,-999,-99.99,,,-99.99,,2013-02-14 16:00:00,
2013-02-14 09:32:00,16.0,-99.9,-100.00,NNW,333,5.0,14.0,-999,-99.99,,,-99.99,,2013-02-14 16:32:00,
2013-02-14 09:42:00,16.0,-99.9,-100.00,NNW,333,5.0,14.0,-999,-99.99,,,-99.99,,2013-02-14 16:42:00,
2013-02-14 09:52:00,16.0,-99.9,-100.00,NNW,333,5.0,14.0,-999,-99.99,,,-99.99,,2013-02-14 16:52:00,
2013-02-14 10:00:00,17.0,-99.9,-100.00,NNW,331,5.0,16.0,-999,-99.99,,,-99.99,,2013-02-14 17:00:00,
2013-02-14 10:32:00,17.0,-99.9,-100.00,NNW,331,5.0,16.0,-999,-99.99,,,-99.99,,2013-02-14 17:32:00,
2013-02-14 10:42:00,17.0,-99.9,-100.00,NNW,331,5.0,16.0,-999,-99.99,,,-99.99,,2013-02-14 17:42:00,
2013-02-14 10:52:00,17.0,-99.9,-100.00,NNW,331,5.0,16.0,-999,-99.99,,,-99.99,,2013-02-14 17:52:00,
2013-02-14 11:00:00,19.0,-99.9,-100.00,NW,308,4.0,13.0,-999,-99.99,,,-99.99,,2013-02-14 18:00:00,
2013-02-14 11:32:00,19.0,-99.9,-100.00,NW,308,4.0,13.0,-999,-99.99,,,-99.99,,2013-02-14 18:32:00,
2013-02-14 11:42:00,19.0,-99.9,-100.00,NW,308,4.0,13.0,-999,-99.99,,,-99.99,,2013-02-14 18:42:00,
2013-02-14 11:52:00,19.0,-99.9,-100.00,NW,308,4.0,13.0,-999,-99.99,,,-99.99,,2013-02-14 18:52:00,
2013-02-14 13:00:00,22.0,-99.9,-100.00,WNW,293,7.0,16.0,-999,-99.99,,,-99.99,,2013-02-14 20:00:00,
2013-02-14 13:32:00,22.0,-99.9,-100.00,WNW,293,7.0,16.0,-999,-99.99,,,-99.99,,2013-02-14 20:32:00,
2013-02-14 13:42:00,22.0,-99.9,-100.00,WNW,293,7.0,16.0,-999,-99.99,,,-99.99,,2013-02-14 20:42:00,
2013-02-14 13:52:00,22.0,-99.9,-100.00,WNW,293,7.0,16.0,-999,-99.99,,,-99.99,,2013-02-14 20:52:00,
2013-02-14 14:00:00,22.0,-99.9,-100.00,WNW,286,8.0,18.0,-999,-99.99,,,-99.99,,2013-02-14 21:00:00,
2013-02-14 14:32:00,22.0,-99.9,-100.00,WNW,286,8.0,18.0,-999,-99.99,,,-99.99,,2013-02-14 21:32:00,
2013-02-14 14:42:00,22.0,-99.9,-100.00,WNW,286,8.0,18.0,-999,-99.99,,,-99.99,,2013-02-14 21:42:00,
2013-02-14 14:52:00,22.0,-99.9,-100.00,WNW,286,8.0,18.0,-999,-99.99,,,-99.99,,2013-02-14 21:52:00,
2013-02-14 15:00:00,21.0,-99.9,-100.00,West,265,10.0,18.0,-999,-99.99,,,-99.99,,2013-02-14 22:00:00,
2013-02-14 15:32:00,21.0,-99.9,-100.00,West,265,10.0,18.0,-999,-99.99,,,-99.99,,2013-02-14 22:32:00,
2013-02-14 15:42:00,21.0,-99.9,-100.00,West,265,10.0,18.0,-999,-99.99,,,-99.99,,2013-02-14 22:42:00,
2013-02-14 15:52:00,21.0,-99.9,-100.00,West,265,10.0,18.0,-999,-99.99,,,-99.99,,2013-02-14 22:52:00,
2013-02-14 16:00:00,20.0,-99.9,-100.00,West,267,11.0,20.0,-999,-99.99,,,-99.99,,2013-02-14 23:00:00,
2013-02-14 16:32:00,20.0,-99.9,-100.00,West,267,11.0,20.0,-999,-99.99,,,-99.99,,2013-02-14 23:32:00,
2013-02-14 16:42:00,20.0,-99.9,-100.00,West,267,11.0,20.0,-999,-99.99,,,-99.99,,2013-02-14 23:42:00,
2013-02-14 16:52:00,20.0,-99.9,-100.00,West,267,11.0,20.0,-999,-99.99,,,-99.99,,2013-02-14 23:52:00,
2013-02-14 17:00:00,19.0,-99.9,-100.00,WNW,285,10.0,22.0,-999,-99.99,,,-99.99,,2013-02-15 00:00:00,
2013-02-14 17:32:00,19.0,-99.9,-100.00,WNW,285,10.0,22.0,-999,-99.99,,,-99.99,,2013-02-15 00:32:00,
2013-02-14 17:42:00,19.0,-99.9,-100.00,WNW,285,10.0,22.0,-999,-99.99,,,-99.99,,2013-02-15 00:42:00,
2013-02-14 17:52:00,19.0,-99.9,-100.00,WNW,285,10.0,22.0,-999,-99.99,,,-99.99,,2013-02-15 00:52:00,
2013-02-14 19:00:00,15.0,-99.9,-100.00,WNW,285,10.0,21.0,-999,-99.99,,,-99.99,,2013-02-15 02:00:00,
2013-02-14 19:32:00,15.0,-99.9,-100.00,WNW,285,10.0,21.0,-999,-99.99,,,-99.99,,2013-02-15 02:32:00,
2013-02-14 19:42:00,15.0,-99.9,-100.00,WNW,285,10.0,21.0,-999,-99.99,,,-99.99,,2013-02-15 02:42:00,
2013-02-14 19:52:00,15.0,-99.9,-100.00,WNW,285,10.0,21.0,-999,-99.99,,,-99.99,,2013-02-15 02:52:00,
2013-02-14 20:00:00,14.0,-99.9,-100.00,WNW,283,11.0,22.0,-999,-99.99,,,-99.99,,2013-02-15 03:00:00,
2013-02-14 20:32:00,14.0,-99.9,-100.00,WNW,283,11.0,22.0,-999,-99.99,,,-99.99,,2013-02-15 03:32:00,
2013-02-14 20:42:00,14.0,-99.9,-100.00,WNW,283,11.0,22.0,-999,-99.99,,,-99.99,,2013-02-15 03:42:00,
2013-02-14 20:52:00,14.0,-99.9,-100.00,WNW,283,11.0,22.0,-999,-99.99,,,-99.99,,2013-02-15 03:52:00,
2013-02-14 21:00:00,15.0,-99.9,-100.00,West,278,13.0,23.0,-999,-99.99,,,-99.99,,2013-02-15 04:00:00,
2013-02-14 21:32:00,15.0,-99.9,-100.00,West,278,13.0,23.0,-999,-99.99,,,-99.99,,2013-02-15 04:32:00,
2013-02-14 21:42:00,15.0,-99.9,-100.00,West,278,13.0,23.0,-999,-99.99,,,-99.99,,2013-02-15 04:42:00,
2013-02-14 21:52:00,15.0,-99.9,-100.00,West,278,13.0,23.0,-999,-99.99,,,-99.99,,2013-02-15 04:52:00,
2013-02-14 22:00:00,15.0,-99.9,-100.00,WNW,286,11.0,23.0,-999,-99.99,,,-99.99,,2013-02-15 05:00:00,
2013-02-14 22:33:00,15.0,-99.9,-100.00,WNW,286,11.0,23.0,-999,-99.99,,,-99.99,,2013-02-15 05:33:00,
2013-02-14 22:42:00,15.0,-99.9,-100.00,WNW,286,11.0,23.0,-999,-99.99,,,-99.99,,2013-02-15 05:42:00,
2013-02-14 22:52:00,15.0,-99.9,-100.00,WNW,286,11.0,23.0,-999,-99.99,,,-99.99,,2013-02-15 05:52:00,
2013-02-14 23:00:00,15.0,-99.9,-100.00,WNW,293,8.0,19.0,-999,-99.99,,,-99.99,,2013-02-15 06:00:00,
2013-02-14 23:32:00,15.0,-99.9,-100.00,WNW,293,8.0,19.0,-999,-99.99,,,-99.99,,2013-02-15 06:32:00,
2013-02-14 23:42:00,15.0,-99.9,-100.00,WNW,293,8.0,19.0,-999,-99.99,,,-99.99,,2013-02-15 06:42:00,
2013-02-14 23:52:00,15.0,-99.9,-100.00,WNW,293,8.0,19.0,-999,-99.99,,,-99.99,,2013-02-15 06:52:00,